createdAt,value
2017-11-22T00:01:53.500Z,7.27
2017-11-22T00:06:57.115Z,8.13
2017-11-22T00:11:59.687Z,7.40
2017-11-22T00:17:03.513Z,7.23
2017-11-22T00:22:06.113Z,7.47
2017-11-22T00:27:08.762Z,7.10
2017-11-22T00:32:11.416Z,8.17
2017-11-22T00:37:15.000Z,10.73
2017-11-22T00:42:18.433Z,10.53
2017-11-22T00:47:22.667Z,10.07
2017-11-22T00:52:26.056Z,12.20
2017-11-22T00:57:29.258Z,12.83
2017-11-22T01:02:31.989Z,12.60
2017-11-22T01:07:35.830Z,13.43
2017-11-22T01:12:38.486Z,11.93
2017-11-22T01:17:41.764Z,16.60
2017-11-22T01:22:44.791Z,16.67
2017-11-22T01:27:49.286Z,18.20
2017-11-22T01:32:51.915Z,18.37
2017-11-22T01:37:55.200Z,20.83
2017-11-22T01:42:57.859Z,19.43
2017-11-22T01:48:01.042Z,17.20
2017-11-22T01:53:03.642Z,19.60
2017-11-22T01:58:06.721Z,17.70
2017-11-22T02:03:21.278Z,19.33
2017-11-22T02:08:25.024Z,23.03
2017-11-22T02:13:28.414Z,16.97
2017-11-22T02:18:31.273Z,20.53
2017-11-22T02:23:33.907Z,18.57
2017-11-22T02:28:36.872Z,22.20
2017-11-22T02:33:39.468Z,22.33
2017-11-22T02:38:42.633Z,20.87
2017-11-22T02:43:45.285Z,20.83
2017-11-22T02:48:48.617Z,19.87
2017-11-22T02:53:51.249Z,16.13
2017-11-22T02:58:55.027Z,17.40
2017-11-22T03:03:57.649Z,16.57
2017-11-22T03:09:02.001Z,14.10
2017-11-22T03:14:04.621Z,15.73
2017-11-22T03:19:08.769Z,13.97
2017-11-22T03:24:11.406Z,12.87
2017-11-22T03:29:14.302Z,13.77
2017-11-22T03:34:16.888Z,12.63
2017-11-22T03:39:19.955Z,13.80
2017-11-22T03:44:22.566Z,13.13
2017-11-22T03:49:26.600Z,12.93
2017-11-22T03:54:29.988Z,13.73
2017-11-22T03:59:33.429Z,12.40
2017-11-22T04:04:36.807Z,13.60
2017-11-22T04:09:39.482Z,14.43
2017-11-22T04:14:42.106Z,13.00
2017-11-22T04:19:51.491Z,11.20
2017-11-22T04:24:54.883Z,10.87
2017-11-22T04:29:58.354Z,13.37
2017-11-22T04:35:00.949Z,10.77
2017-11-22T04:40:04.470Z,10.53
2017-11-22T04:45:07.130Z,11.40
2017-11-22T04:50:10.265Z,9.43
2017-11-22T04:55:13.650Z,9.77
2017-11-22T05:00:16.780Z,11.20
2017-11-22T05:05:19.412Z,9.67
2017-11-22T05:10:22.157Z,11.13
2017-11-22T05:15:24.790Z,10.83
2017-11-22T05:20:28.717Z,8.23
2017-11-22T05:25:32.092Z,8.13
2017-11-22T05:30:34.841Z,10.67
2017-11-22T05:35:38.216Z,11.20
2017-11-22T05:40:41.201Z,8.67
2017-11-22T05:45:43.829Z,8.40
2017-11-22T05:50:46.595Z,8.03
2017-11-22T05:55:49.171Z,10.30
2017-11-22T06:00:52.800Z,8.87
2017-11-22T06:05:55.430Z,10.33
2017-11-22T06:10:59.016Z,8.97
2017-11-22T06:16:01.642Z,10.73
2017-11-22T06:21:05.012Z,12.90
2017-11-22T06:26:08.399Z,10.00
2017-11-22T06:31:11.656Z,9.17
2017-11-22T06:36:14.319Z,11.87
2017-11-22T06:41:17.148Z,9.70
2017-11-22T06:46:20.548Z,11.23
2017-11-22T06:51:23.698Z,9.17
2017-11-22T06:56:26.357Z,9.73
2017-11-22T07:01:30.178Z,10.13
2017-11-22T07:06:33.725Z,11.37
2017-11-22T07:11:37.369Z,16.53
2017-11-22T07:16:45.770Z,11.60
2017-11-22T07:21:49.313Z,9.93
2017-11-22T07:26:51.896Z,11.23
2017-11-22T07:31:55.558Z,10.97
2017-11-22T07:37:04.758Z,10.13
2017-11-22T07:42:07.711Z,10.17
2017-11-22T07:47:12.300Z,9.20
2017-11-22T07:52:14.973Z,10.17
2017-11-22T07:57:17.559Z,11.37
2017-11-22T08:02:20.721Z,9.20
2017-11-22T08:07:23.307Z,11.60
2017-11-22T08:12:26.162Z,11.90
2017-11-22T08:17:28.741Z,14.00
2017-11-22T08:22:31.616Z,14.20
2017-11-22T08:27:34.278Z,17.30
2017-11-22T08:32:37.258Z,13.80
2017-11-22T08:37:39.951Z,14.87
2017-11-22T08:42:43.512Z,15.93
2017-11-22T08:47:46.178Z,16.97
2017-11-22T08:52:49.768Z,15.70
2017-11-22T08:57:57.923Z,16.47
2017-11-22T09:03:03.517Z,13.73
2017-11-22T09:08:06.094Z,13.43
2017-11-22T09:13:09.151Z,13.03
2017-11-22T09:18:12.721Z,16.00
2017-11-22T09:23:15.969Z,11.73
2017-11-22T09:28:18.588Z,9.97
2017-11-22T09:33:28.818Z,10.40
2017-11-22T09:38:31.434Z,9.87
2017-11-22T09:43:34.193Z,8.80
2017-11-22T09:48:37.579Z,7.93
2017-11-22T09:53:41.151Z,7.17
2017-11-22T09:58:43.781Z,8.73
2017-11-22T10:03:47.343Z,8.67
2017-11-22T10:08:50.729Z,8.07
2017-11-22T10:13:53.784Z,9.33
2017-11-22T10:18:57.197Z,7.33
2017-11-22T10:24:01.530Z,8.53
2017-11-22T10:29:11.013Z,6.37
2017-11-22T10:34:13.811Z,9.60
2017-11-22T10:39:16.423Z,7.53
2017-11-22T10:44:19.308Z,9.33
2017-11-22T10:49:21.941Z,10.30
2017-11-22T10:54:25.021Z,6.77
2017-11-22T10:59:27.655Z,7.50
2017-11-22T11:04:30.899Z,7.83
2017-11-22T11:09:33.756Z,6.87
2017-11-22T11:14:36.440Z,7.03
2017-11-22T11:19:39.047Z,6.67
2017-11-22T11:24:42.201Z,6.93
2017-11-22T11:29:44.806Z,7.87
2017-11-22T11:34:47.541Z,7.93
2017-11-22T11:39:50.148Z,7.60
2017-11-22T11:44:52.826Z,6.80
2017-11-22T11:49:56.204Z,7.63
2017-11-22T11:54:59.073Z,10.53
2017-11-22T12:00:01.686Z,11.17
2017-11-22T12:05:04.447Z,7.03
2017-11-22T12:10:07.842Z,9.83
2017-11-22T12:15:11.454Z,8.27
2017-11-22T12:20:14.080Z,7.93
2017-11-22T12:25:18.292Z,6.00
2017-11-22T12:30:20.904Z,6.57
2017-11-22T12:35:24.061Z,6.23
2017-11-22T12:40:26.680Z,8.20
2017-11-22T12:45:29.832Z,9.10
2017-11-22T12:50:33.268Z,6.60
2017-11-22T12:55:36.027Z,9.33
2017-11-22T13:00:38.615Z,8.17
2017-11-22T13:05:42.097Z,6.73
2017-11-22T13:10:45.563Z,8.33
2017-11-22T13:15:48.201Z,6.77
2017-11-22T13:20:50.827Z,10.23
2017-11-22T13:25:53.498Z,8.00
2017-11-22T13:30:56.108Z,9.13
2017-11-22T13:35:59.685Z,6.50
2017-11-22T13:41:02.337Z,8.37
2017-11-22T13:46:05.816Z,7.03
2017-11-22T13:51:08.449Z,7.97
2017-11-22T13:56:11.932Z,5.40
2017-11-22T14:01:15.336Z,8.80
2017-11-22T14:06:18.415Z,7.90
2017-11-22T14:11:20.998Z,7.67
2017-11-22T14:16:23.949Z,6.03
2017-11-22T14:21:26.576Z,7.10
2017-11-22T14:26:30.505Z,9.63
2017-11-22T14:31:33.900Z,8.17
2017-11-22T14:36:38.026Z,8.67
2017-11-22T14:41:40.642Z,8.33
2017-11-22T14:46:44.380Z,6.93
2017-11-22T14:51:47.766Z,9.80
2017-11-22T14:56:51.051Z,8.17
2017-11-22T15:01:53.663Z,8.60
2017-11-22T15:06:57.008Z,7.53
2017-11-22T15:12:00.406Z,6.50
2017-11-22T15:17:03.969Z,6.73
2017-11-22T15:22:06.607Z,8.63
2017-11-22T15:27:09.781Z,6.87
2017-11-22T15:32:12.421Z,11.23
2017-11-22T15:37:15.381Z,8.33
2017-11-22T15:42:18.728Z,8.17
2017-11-22T15:47:22.030Z,8.53
2017-11-22T15:52:24.658Z,8.23
2017-11-22T15:57:27.445Z,10.00
2017-11-22T16:02:30.078Z,10.33
2017-11-22T16:07:32.828Z,12.20
2017-11-22T16:12:35.447Z,12.33
2017-11-22T16:17:38.593Z,8.80
2017-11-22T16:22:41.193Z,9.80
2017-11-22T16:27:44.544Z,9.33
2017-11-22T16:32:47.176Z,11.43
2017-11-22T16:37:51.077Z,12.13
2017-11-22T16:42:53.713Z,8.73
2017-11-22T16:47:56.400Z,11.93
2017-11-22T16:52:59.625Z,10.63
2017-11-22T16:58:02.972Z,13.00
2017-11-22T17:03:06.440Z,9.80
2017-11-22T17:08:10.212Z,8.63
2017-11-22T17:13:12.942Z,9.40
2017-11-22T17:18:15.882Z,9.13
2017-11-22T17:23:18.540Z,11.83
2017-11-22T17:28:21.548Z,9.80
2017-11-22T17:33:24.371Z,8.90
2017-11-22T17:38:27.820Z,7.90
2017-11-22T17:43:30.574Z,9.00
2017-11-22T17:48:33.498Z,8.47
2017-11-22T17:53:36.454Z,12.10
2017-11-22T17:58:40.014Z,11.20
2017-11-22T18:03:42.633Z,9.43
2017-11-22T18:08:45.676Z,10.20
2017-11-22T18:13:48.524Z,9.83
2017-11-22T18:18:51.766Z,9.40
2017-11-22T18:23:54.491Z,8.20
2017-11-22T18:28:58.287Z,9.77
2017-11-22T18:34:01.190Z,10.17
2017-11-22T18:39:04.359Z,11.33
2017-11-22T18:44:07.762Z,12.83
2017-11-22T18:49:11.052Z,12.27
2017-11-22T18:54:13.962Z,9.47
2017-11-22T18:59:17.428Z,10.27
2017-11-22T19:04:20.337Z,10.83
2017-11-22T19:09:23.239Z,11.13
2017-11-22T19:14:26.012Z,12.77
2017-11-22T19:19:30.215Z,10.87
2017-11-22T19:24:32.895Z,11.47
2017-11-22T19:29:36.155Z,12.07
2017-11-22T19:34:38.898Z,10.23
2017-11-22T19:39:41.996Z,12.00
2017-11-22T19:44:45.443Z,11.83
2017-11-22T19:49:48.488Z,10.77
2017-11-22T19:54:51.134Z,14.27
2017-11-22T19:59:54.575Z,12.43
2017-11-22T20:04:57.204Z,12.87
2017-11-22T20:10:00.483Z,14.53
2017-11-22T20:15:03.136Z,12.60
2017-11-22T20:20:06.960Z,12.73
2017-11-22T20:25:15.624Z,12.67
2017-11-22T20:30:18.943Z,11.43
2017-11-22T20:35:21.646Z,13.07
2017-11-22T20:40:24.823Z,12.87
2017-11-22T20:45:27.511Z,13.07
2017-11-22T20:50:30.885Z,13.23
2017-11-22T20:55:33.624Z,12.00
2017-11-22T21:00:37.258Z,14.87
2017-11-22T21:05:40.026Z,11.20
2017-11-22T21:10:42.893Z,12.37
2017-11-22T21:15:45.667Z,11.10
2017-11-22T21:20:48.724Z,10.03
2017-11-22T21:25:51.396Z,13.30
2017-11-22T21:30:55.977Z,13.80
2017-11-22T21:35:58.801Z,11.93
2017-11-22T21:41:01.986Z,11.07
2017-11-22T21:46:04.884Z,10.43
2017-11-22T21:51:08.335Z,10.37
2017-11-22T21:56:11.735Z,12.13
2017-11-22T22:01:14.696Z,10.07
2017-11-22T22:06:18.240Z,12.93
2017-11-22T22:11:21.657Z,10.60
2017-11-22T22:16:24.349Z,11.63
2017-11-22T22:21:27.560Z,10.70
2017-11-22T22:26:30.287Z,12.23
2017-11-22T22:31:33.575Z,13.03
2017-11-22T22:36:36.258Z,15.53
2017-11-22T22:41:40.006Z,11.13
2017-11-22T22:46:42.757Z,12.20
2017-11-22T22:51:46.425Z,13.37
2017-11-22T22:56:49.560Z,11.57
2017-11-22T23:01:52.298Z,14.73
2017-11-22T23:06:55.072Z,16.30
2017-11-22T23:11:57.701Z,14.40
2017-11-22T23:17:00.447Z,13.37
2017-11-22T23:22:03.892Z,13.03
2017-11-22T23:27:06.760Z,12.63
2017-11-22T23:32:09.634Z,15.67
2017-11-22T23:37:13.125Z,10.93
2017-11-22T23:42:16.602Z,13.77
2017-11-22T23:47:19.417Z,14.10
2017-11-22T23:52:22.083Z,15.30
2017-11-22T23:57:25.481Z,17.57
